sensor_id;sensor_type;location;lat;lon;timestamp;P1;durP1;ratioP1;P2;durP2;ratioP2
5813;SDS011;2933;52.302;8.134;2023-08-17T00:04:35;4.20;;;1.70;;
5813;SDS011;2933;52.302;8.134;2023-08-17T00:09:36;7.03;;;2.13;;
5813;SDS011;2933;52.302;8.134;2023-08-17T00:14:41;2.03;;;1.60;;
5813;SDS011;2933;52.302;8.134;2023-08-17T00:19:43;4.00;;;1.70;;
5813;SDS011;2933;52.302;8.134;2023-08-17T00:24:44;3.87;;;1.60;;
5813;SDS011;2933;52.302;8.134;2023-08-17T00:29:47;2.27;;;1.47;;
5813;SDS011;2933;52.302;8.134;2023-08-17T00:34:49;10.77;;;1.67;;
5813;SDS011;2933;52.302;8.134;2023-08-17T00:39:51;1.20;;;1.20;;
5813;SDS011;2933;52.302;8.134;2023-08-17T00:44:53;4.77;;;1.70;;
5813;SDS011;2933;52.302;8.134;2023-08-17T00:49:55;3.00;;;1.20;;
5813;SDS011;2933;52.302;8.134;2023-08-17T00:54:57;2.10;;;1.37;;
5813;SDS011;2933;52.302;8.134;2023-08-17T01:00:03;6.00;;;1.73;;
5813;SDS011;2933;52.302;8.134;2023-08-17T01:05:07;2.33;;;1.53;;
5813;SDS011;2933;52.302;8.134;2023-08-17T01:10:09;4.13;;;1.50;;
5813;SDS011;2933;52.302;8.134;2023-08-17T01:15:14;2.10;;;1.50;;
5813;SDS011;2933;52.302;8.134;2023-08-17T01:20:19;1.80;;;1.70;;
5813;SDS011;2933;52.302;8.134;2023-08-17T01:25:22;3.50;;;2.00;;
5813;SDS011;2933;52.302;8.134;2023-08-17T01:30:24;3.20;;;1.67;;
5813;SDS011;2933;52.302;8.134;2023-08-17T01:35:28;5.53;;;1.70;;
5813;SDS011;2933;52.302;8.134;2023-08-17T01:40:33;2.33;;;1.60;;
5813;SDS011;2933;52.302;8.134;2023-08-17T01:45:36;3.43;;;1.80;;
5813;SDS011;2933;52.302;8.134;2023-08-17T01:50:37;5.60;;;1.90;;
5813;SDS011;2933;52.302;8.134;2023-08-17T01:55:40;2.00;;;1.80;;
5813;SDS011;2933;52.302;8.134;2023-08-17T02:00:41;2.20;;;1.70;;
5813;SDS011;2933;52.302;8.134;2023-08-17T02:05:44;3.73;;;1.77;;
5813;SDS011;2933;52.302;8.134;2023-08-17T02:10:47;5.23;;;1.43;;
5813;SDS011;2933;52.302;8.134;2023-08-17T02:15:48;4.70;;;1.60;;
5813;SDS011;2933;52.302;8.134;2023-08-17T02:20:49;1.63;;;1.60;;
5813;SDS011;2933;52.302;8.134;2023-08-17T02:25:52;2.60;;;2.03;;
5813;SDS011;2933;52.302;8.134;2023-08-17T02:30:54;4.90;;;1.37;;
5813;SDS011;2933;52.302;8.134;2023-08-17T02:35:56;1.60;;;1.50;;
5813;SDS011;2933;52.302;8.134;2023-08-17T02:40:59;1.60;;;1.50;;
5813;SDS011;2933;52.302;8.134;2023-08-17T02:46:01;2.40;;;1.43;;
5813;SDS011;2933;52.302;8.134;2023-08-17T02:51:03;2.00;;;1.90;;
5813;SDS011;2933;52.302;8.134;2023-08-17T02:56:06;2.63;;;1.60;;
5813;SDS011;2933;52.302;8.134;2023-08-17T03:01:11;2.13;;;2.03;;
5813;SDS011;2933;52.302;8.134;2023-08-17T03:06:13;1.70;;;1.60;;
5813;SDS011;2933;52.302;8.134;2023-08-17T03:11:16;3.43;;;2.00;;
5813;SDS011;2933;52.302;8.134;2023-08-17T03:16:17;3.90;;;2.00;;
5813;SDS011;2933;52.302;8.134;2023-08-17T03:21:19;10.13;;;2.13;;
5813;SDS011;2933;52.302;8.134;2023-08-17T03:26:22;3.93;;;1.53;;
5813;SDS011;2933;52.302;8.134;2023-08-17T03:31:23;3.07;;;1.60;;
5813;SDS011;2933;52.302;8.134;2023-08-17T03:36:25;11.70;;;2.40;;
5813;SDS011;2933;52.302;8.134;2023-08-17T03:41:27;4.37;;;2.03;;
5813;SDS011;2933;52.302;8.134;2023-08-17T03:46:30;2.03;;;1.80;;
5813;SDS011;2933;52.302;8.134;2023-08-17T03:51:31;6.60;;;2.20;;
5813;SDS011;2933;52.302;8.134;2023-08-17T03:56:34;3.40;;;2.20;;
5813;SDS011;2933;52.302;8.134;2023-08-17T04:01:36;4.80;;;1.70;;
5813;SDS011;2933;52.302;8.134;2023-08-17T04:06:37;3.13;;;1.60;;
5813;SDS011;2933;52.302;8.134;2023-08-17T04:11:42;2.10;;;1.80;;
5813;SDS011;2933;52.302;8.134;2023-08-17T04:16:43;2.10;;;1.90;;
5813;SDS011;2933;52.302;8.134;2023-08-17T04:21:45;5.03;;;1.80;;
5813;SDS011;2933;52.302;8.134;2023-08-17T04:26:48;5.07;;;2.20;;
5813;SDS011;2933;52.302;8.134;2023-08-17T04:31:49;2.50;;;2.40;;
5813;SDS011;2933;52.302;8.134;2023-08-17T04:36:51;6.27;;;2.30;;
5813;SDS011;2933;52.302;8.134;2023-08-17T04:41:54;4.40;;;2.50;;
5813;SDS011;2933;52.302;8.134;2023-08-17T04:46:55;5.80;;;2.10;;
5813;SDS011;2933;52.302;8.134;2023-08-17T04:51:57;7.40;;;2.33;;
5813;SDS011;2933;52.302;8.134;2023-08-17T04:56:59;3.27;;;2.17;;
5813;SDS011;2933;52.302;8.134;2023-08-17T05:02:01;2.50;;;2.20;;
5813;SDS011;2933;52.302;8.134;2023-08-17T05:07:02;5.43;;;2.50;;
5813;SDS011;2933;52.302;8.134;2023-08-17T05:12:06;2.53;;;2.30;;
5813;SDS011;2933;52.302;8.134;2023-08-17T05:17:08;2.23;;;2.13;;
5813;SDS011;2933;52.302;8.134;2023-08-17T05:22:10;3.10;;;2.80;;
5813;SDS011;2933;52.302;8.134;2023-08-17T05:27:14;4.63;;;2.37;;
5813;SDS011;2933;52.302;8.134;2023-08-17T05:32:16;2.30;;;2.10;;
5813;SDS011;2933;52.302;8.134;2023-08-17T05:37:17;6.07;;;2.40;;
5813;SDS011;2933;52.302;8.134;2023-08-17T05:42:20;5.70;;;2.90;;
5813;SDS011;2933;52.302;8.134;2023-08-17T05:47:22;8.23;;;2.70;;
5813;SDS011;2933;52.302;8.134;2023-08-17T05:52:23;3.10;;;2.47;;
5813;SDS011;2933;52.302;8.134;2023-08-17T05:57:26;2.63;;;2.43;;
5813;SDS011;2933;52.302;8.134;2023-08-17T06:02:28;5.37;;;3.10;;
5813;SDS011;2933;52.302;8.134;2023-08-17T06:07:29;5.40;;;2.70;;
5813;SDS011;2933;52.302;8.134;2023-08-17T06:12:32;5.93;;;2.50;;
5813;SDS011;2933;52.302;8.134;2023-08-17T06:17:34;2.50;;;2.30;;
5813;SDS011;2933;52.302;8.134;2023-08-17T06:22:35;3.00;;;2.40;;
5813;SDS011;2933;52.302;8.134;2023-08-17T06:27:40;4.60;;;2.40;;
5813;SDS011;2933;52.302;8.134;2023-08-17T06:32:42;6.73;;;2.83;;
5813;SDS011;2933;52.302;8.134;2023-08-17T06:37:44;6.40;;;2.30;;
5813;SDS011;2933;52.302;8.134;2023-08-17T06:42:47;3.43;;;2.87;;
5813;SDS011;2933;52.302;8.134;2023-08-17T06:47:49;2.43;;;2.23;;
5813;SDS011;2933;52.302;8.134;2023-08-17T06:52:50;2.77;;;2.50;;
5813;SDS011;2933;52.302;8.134;2023-08-17T06:57:53;3.63;;;2.60;;
5813;SDS011;2933;52.302;8.134;2023-08-17T07:02:55;4.53;;;3.20;;
5813;SDS011;2933;52.302;8.134;2023-08-17T07:07:56;5.40;;;3.00;;
5813;SDS011;2933;52.302;8.134;2023-08-17T07:13:00;3.93;;;2.93;;
5813;SDS011;2933;52.302;8.134;2023-08-17T07:18:03;5.00;;;3.47;;
5813;SDS011;2933;52.302;8.134;2023-08-17T07:23:05;9.30;;;3.70;;
5813;SDS011;2933;52.302;8.134;2023-08-17T07:28:08;3.63;;;3.30;;
5813;SDS011;2933;52.302;8.134;2023-08-17T07:33:09;7.03;;;3.87;;
5813;SDS011;2933;52.302;8.134;2023-08-17T07:38:11;5.40;;;3.80;;
5813;SDS011;2933;52.302;8.134;2023-08-17T07:43:14;7.57;;;4.40;;
5813;SDS011;2933;52.302;8.134;2023-08-17T07:48:15;7.33;;;4.27;;
5813;SDS011;2933;52.302;8.134;2023-08-17T07:53:17;4.97;;;4.33;;
5813;SDS011;2933;52.302;8.134;2023-08-17T07:58:20;6.00;;;4.23;;
5813;SDS011;2933;52.302;8.134;2023-08-17T08:03:21;5.40;;;4.27;;
5813;SDS011;2933;52.302;8.134;2023-08-17T08:08:23;10.43;;;4.83;;
5813;SDS011;2933;52.302;8.134;2023-08-17T08:13:26;6.43;;;4.70;;
5813;SDS011;2933;52.302;8.134;2023-08-17T08:18:27;6.40;;;4.50;;
5813;SDS011;2933;52.302;8.134;2023-08-17T08:23:29;8.63;;;4.27;;
5813;SDS011;2933;52.302;8.134;2023-08-17T08:28:31;6.70;;;4.50;;
5813;SDS011;2933;52.302;8.134;2023-08-17T08:33:33;6.10;;;4.90;;
5813;SDS011;2933;52.302;8.134;2023-08-17T08:38:34;7.47;;;5.10;;
5813;SDS011;2933;52.302;8.134;2023-08-17T08:43:38;17.53;;;4.80;;
5813;SDS011;2933;52.302;8.134;2023-08-17T08:48:39;8.23;;;5.40;;
5813;SDS011;2933;52.302;8.134;2023-08-17T08:53:44;5.20;;;4.70;;
5813;SDS011;2933;52.302;8.134;2023-08-17T08:58:47;8.30;;;4.67;;
5813;SDS011;2933;52.302;8.134;2023-08-17T09:03:49;12.20;;;5.90;;
5813;SDS011;2933;52.302;8.134;2023-08-17T09:08:51;9.83;;;5.47;;
5813;SDS011;2933;52.302;8.134;2023-08-17T09:13:54;10.30;;;5.17;;
5813;SDS011;2933;52.302;8.134;2023-08-17T09:18:56;8.00;;;4.93;;
5813;SDS011;2933;52.302;8.134;2023-08-17T09:23:58;9.53;;;5.50;;
5813;SDS011;2933;52.302;8.134;2023-08-17T09:29:03;10.83;;;6.10;;
5813;SDS011;2933;52.302;8.134;2023-08-17T09:34:17;6.90;;;4.70;;
5813;SDS011;2933;52.302;8.134;2023-08-17T09:39:20;9.40;;;5.97;;
5813;SDS011;2933;52.302;8.134;2023-08-17T09:44:23;6.73;;;6.10;;
5813;SDS011;2933;52.302;8.134;2023-08-17T09:49:24;6.93;;;5.90;;
5813;SDS011;2933;52.302;8.134;2023-08-17T09:54:26;7.87;;;5.83;;
5813;SDS011;2933;52.302;8.134;2023-08-17T09:59:29;12.63;;;6.60;;
5813;SDS011;2933;52.302;8.134;2023-08-17T10:04:30;11.67;;;6.87;;
5813;SDS011;2933;52.302;8.134;2023-08-17T10:09:36;6.80;;;5.90;;
5813;SDS011;2933;52.302;8.134;2023-08-17T10:14:45;9.37;;;6.17;;
5813;SDS011;2933;52.302;8.134;2023-08-17T10:19:51;11.00;;;6.57;;
5813;SDS011;2933;52.302;8.134;2023-08-17T10:24:55;9.80;;;6.30;;
5813;SDS011;2933;52.302;8.134;2023-08-17T10:30:00;9.67;;;6.53;;
5813;SDS011;2933;52.302;8.134;2023-08-17T10:35:04;15.43;;;7.10;;
5813;SDS011;2933;52.302;8.134;2023-08-17T10:40:07;22.93;;;9.10;;
5813;SDS011;2933;52.302;8.134;2023-08-17T10:50:29;11.47;;;6.87;;
5813;SDS011;2933;52.302;8.134;2023-08-17T10:55:37;7.07;;;6.37;;
5813;SDS011;2933;52.302;8.134;2023-08-17T11:00:41;6.47;;;5.80;;
5813;SDS011;2933;52.302;8.134;2023-08-17T11:05:45;7.40;;;6.40;;
5813;SDS011;2933;52.302;8.134;2023-08-17T11:10:56;8.57;;;5.67;;
5813;SDS011;2933;52.302;8.134;2023-08-17T11:16:06;13.63;;;6.37;;
5813;SDS011;2933;52.302;8.134;2023-08-17T11:21:08;10.93;;;6.27;;
5813;SDS011;2933;52.302;8.134;2023-08-17T11:26:10;8.40;;;5.57;;
5813;SDS011;2933;52.302;8.134;2023-08-17T11:31:13;8.50;;;6.07;;
5813;SDS011;2933;52.302;8.134;2023-08-17T11:36:15;7.40;;;5.97;;
5813;SDS011;2933;52.302;8.134;2023-08-17T11:41:17;5.83;;;5.43;;
5813;SDS011;2933;52.302;8.134;2023-08-17T11:46:20;10.57;;;5.30;;
5813;SDS011;2933;52.302;8.134;2023-08-17T11:51:28;7.97;;;6.13;;
5813;SDS011;2933;52.302;8.134;2023-08-17T11:56:32;7.33;;;5.63;;
5813;SDS011;2933;52.302;8.134;2023-08-17T12:01:35;5.50;;;4.83;;
5813;SDS011;2933;52.302;8.134;2023-08-17T12:06:37;9.07;;;5.10;;
5813;SDS011;2933;52.302;8.134;2023-08-17T12:11:44;5.83;;;5.33;;
5813;SDS011;2933;52.302;8.134;2023-08-17T12:16:47;8.40;;;4.47;;
5813;SDS011;2933;52.302;8.134;2023-08-17T12:21:50;7.83;;;5.80;;
5813;SDS011;2933;52.302;8.134;2023-08-17T12:26:52;8.03;;;5.30;;
5813;SDS011;2933;52.302;8.134;2023-08-17T12:31:59;4.83;;;4.47;;
5813;SDS011;2933;52.302;8.134;2023-08-17T12:37:02;5.20;;;4.53;;
5813;SDS011;2933;52.302;8.134;2023-08-17T12:42:04;5.70;;;5.10;;
5813;SDS011;2933;52.302;8.134;2023-08-17T12:47:07;5.70;;;5.13;;
5813;SDS011;2933;52.302;8.134;2023-08-17T12:52:09;7.47;;;5.00;;
5813;SDS011;2933;52.302;8.134;2023-08-17T12:57:10;4.67;;;4.23;;
5813;SDS011;2933;52.302;8.134;2023-08-17T13:02:13;5.53;;;4.07;;
5813;SDS011;2933;52.302;8.134;2023-08-17T13:07:15;5.73;;;4.40;;
5813;SDS011;2933;52.302;8.134;2023-08-17T13:12:16;7.90;;;4.47;;
5813;SDS011;2933;52.302;8.134;2023-08-17T13:17:19;4.70;;;4.03;;
5813;SDS011;2933;52.302;8.134;2023-08-17T13:22:21;4.30;;;3.90;;
5813;SDS011;2933;52.302;8.134;2023-08-17T13:27:22;7.50;;;4.57;;
5813;SDS011;2933;52.302;8.134;2023-08-17T13:32:26;3.83;;;3.53;;
5813;SDS011;2933;52.302;8.134;2023-08-17T13:37:27;5.13;;;4.63;;
5813;SDS011;2933;52.302;8.134;2023-08-17T13:42:29;5.83;;;3.87;;
5813;SDS011;2933;52.302;8.134;2023-08-17T13:47:32;4.57;;;3.60;;
5813;SDS011;2933;52.302;8.134;2023-08-17T13:52:33;3.73;;;3.33;;
5813;SDS011;2933;52.302;8.134;2023-08-17T13:57:35;7.00;;;3.50;;
5813;SDS011;2933;52.302;8.134;2023-08-17T14:02:38;3.27;;;2.90;;
5813;SDS011;2933;52.302;8.134;2023-08-17T14:07:39;3.63;;;3.30;;
5813;SDS011;2933;52.302;8.134;2023-08-17T14:12:41;3.57;;;3.27;;
5813;SDS011;2933;52.302;8.134;2023-08-17T14:17:44;5.40;;;3.70;;
5813;SDS011;2933;52.302;8.134;2023-08-17T14:22:45;4.47;;;4.10;;
5813;SDS011;2933;52.302;8.134;2023-08-17T14:27:47;4.80;;;3.27;;
5813;SDS011;2933;52.302;8.134;2023-08-17T14:32:50;3.30;;;2.80;;
5813;SDS011;2933;52.302;8.134;2023-08-17T14:37:51;3.80;;;3.07;;
5813;SDS011;2933;52.302;8.134;2023-08-17T14:42:53;4.20;;;3.50;;
5813;SDS011;2933;52.302;8.134;2023-08-17T14:47:56;3.30;;;3.00;;
5813;SDS011;2933;52.302;8.134;2023-08-17T14:52:58;3.83;;;3.07;;
5813;SDS011;2933;52.302;8.134;2023-08-17T14:58:02;3.60;;;3.17;;
5813;SDS011;2933;52.302;8.134;2023-08-17T15:03:05;2.90;;;2.70;;
5813;SDS011;2933;52.302;8.134;2023-08-17T15:08:07;4.50;;;3.10;;
5813;SDS011;2933;52.302;8.134;2023-08-17T15:13:08;4.87;;;3.03;;
5813;SDS011;2933;52.302;8.134;2023-08-17T15:18:11;3.40;;;2.87;;
5813;SDS011;2933;52.302;8.134;2023-08-17T15:23:13;4.60;;;4.03;;
5813;SDS011;2933;52.302;8.134;2023-08-17T15:28:14;3.70;;;3.40;;
5813;SDS011;2933;52.302;8.134;2023-08-17T15:33:17;3.37;;;3.07;;
5813;SDS011;2933;52.302;8.134;2023-08-17T15:38:18;3.00;;;2.80;;
5813;SDS011;2933;52.302;8.134;2023-08-17T15:43:20;2.97;;;2.70;;
5813;SDS011;2933;52.302;8.134;2023-08-17T15:48:23;3.53;;;3.23;;
5813;SDS011;2933;52.302;8.134;2023-08-17T15:53:24;2.43;;;2.23;;
5813;SDS011;2933;52.302;8.134;2023-08-17T15:58:26;2.70;;;2.40;;
5813;SDS011;2933;52.302;8.134;2023-08-17T16:03:29;2.90;;;2.63;;
5813;SDS011;2933;52.302;8.134;2023-08-17T16:08:30;3.57;;;2.87;;
5813;SDS011;2933;52.302;8.134;2023-08-17T16:13:32;3.90;;;2.53;;
5813;SDS011;2933;52.302;8.134;2023-08-17T16:18:35;3.30;;;2.50;;
5813;SDS011;2933;52.302;8.134;2023-08-17T16:23:36;2.90;;;2.50;;
5813;SDS011;2933;52.302;8.134;2023-08-17T16:28:38;3.00;;;2.70;;
5813;SDS011;2933;52.302;8.134;2023-08-17T16:33:40;2.77;;;2.57;;
5813;SDS011;2933;52.302;8.134;2023-08-17T16:38:42;3.87;;;2.50;;
5813;SDS011;2933;52.302;8.134;2023-08-17T16:43:43;2.70;;;2.07;;
5813;SDS011;2933;52.302;8.134;2023-08-17T16:48:46;2.60;;;2.23;;
5813;SDS011;2933;52.302;8.134;2023-08-17T16:53:48;3.60;;;2.50;;
5813;SDS011;2933;52.302;8.134;2023-08-17T16:58:50;3.60;;;3.30;;
5813;SDS011;2933;52.302;8.134;2023-08-17T17:03:53;2.70;;;2.37;;
5813;SDS011;2933;52.302;8.134;2023-08-17T17:08:54;3.07;;;2.77;;
5813;SDS011;2933;52.302;8.134;2023-08-17T17:13:56;3.10;;;2.80;;
5813;SDS011;2933;52.302;8.134;2023-08-17T17:18:59;2.60;;;2.20;;
5813;SDS011;2933;52.302;8.134;2023-08-17T17:24:00;41.17;;;7.60;;
5813;SDS011;2933;52.302;8.134;2023-08-17T17:29:02;4.20;;;2.20;;
5813;SDS011;2933;52.302;8.134;2023-08-17T17:34:05;5.23;;;2.47;;
5813;SDS011;2933;52.302;8.134;2023-08-17T17:39:07;2.93;;;2.47;;
5813;SDS011;2933;52.302;8.134;2023-08-17T17:44:08;4.67;;;2.63;;
5813;SDS011;2933;52.302;8.134;2023-08-17T17:49:11;2.70;;;2.50;;
5813;SDS011;2933;52.302;8.134;2023-08-17T17:54:13;5.60;;;2.97;;
5813;SDS011;2933;52.302;8.134;2023-08-17T17:59:15;2.83;;;2.53;;
5813;SDS011;2933;52.302;8.134;2023-08-17T18:04:18;4.83;;;3.27;;
5813;SDS011;2933;52.302;8.134;2023-08-17T18:09:19;6.10;;;2.70;;
5813;SDS011;2933;52.302;8.134;2023-08-17T18:14:21;3.83;;;3.07;;
5813;SDS011;2933;52.302;8.134;2023-08-17T18:19:24;4.50;;;2.83;;
5813;SDS011;2933;52.302;8.134;2023-08-17T18:24:26;8.33;;;3.03;;
5813;SDS011;2933;52.302;8.134;2023-08-17T18:29:27;5.33;;;3.20;;
5813;SDS011;2933;52.302;8.134;2023-08-17T18:34:30;4.40;;;3.50;;
5813;SDS011;2933;52.302;8.134;2023-08-17T18:39:32;3.87;;;3.00;;
5813;SDS011;2933;52.302;8.134;2023-08-17T18:44:33;7.80;;;3.57;;
5813;SDS011;2933;52.302;8.134;2023-08-17T18:49:36;4.80;;;3.37;;
5813;SDS011;2933;52.302;8.134;2023-08-17T18:54:38;4.77;;;3.50;;
5813;SDS011;2933;52.302;8.134;2023-08-17T18:59:39;5.90;;;3.80;;
5813;SDS011;2933;52.302;8.134;2023-08-17T19:04:42;3.87;;;3.47;;
5813;SDS011;2933;52.302;8.134;2023-08-17T19:09:45;4.70;;;3.80;;
5813;SDS011;2933;52.302;8.134;2023-08-17T19:14:47;7.10;;;3.93;;
5813;SDS011;2933;52.302;8.134;2023-08-17T19:19:50;5.23;;;3.77;;
5813;SDS011;2933;52.302;8.134;2023-08-17T19:24:51;5.30;;;4.20;;
5813;SDS011;2933;52.302;8.134;2023-08-17T19:29:53;6.63;;;3.80;;
5813;SDS011;2933;52.302;8.134;2023-08-17T19:34:56;5.23;;;4.20;;
5813;SDS011;2933;52.302;8.134;2023-08-17T19:39:57;5.30;;;4.87;;
5813;SDS011;2933;52.302;8.134;2023-08-17T19:44:59;7.70;;;5.23;;
5813;SDS011;2933;52.302;8.134;2023-08-17T19:50:02;5.47;;;4.83;;
5813;SDS011;2933;52.302;8.134;2023-08-17T19:55:04;6.17;;;4.60;;
5813;SDS011;2933;52.302;8.134;2023-08-17T20:00:07;7.77;;;4.37;;
5813;SDS011;2933;52.302;8.134;2023-08-17T20:05:12;5.30;;;4.60;;
5813;SDS011;2933;52.302;8.134;2023-08-17T20:10:14;5.20;;;4.60;;
5813;SDS011;2933;52.302;8.134;2023-08-17T20:15:15;5.60;;;5.03;;
5813;SDS011;2933;52.302;8.134;2023-08-17T20:20:18;5.73;;;5.07;;
5813;SDS011;2933;52.302;8.134;2023-08-17T20:25:20;5.63;;;5.20;;
5813;SDS011;2933;52.302;8.134;2023-08-17T20:30:21;5.23;;;4.73;;
5813;SDS011;2933;52.302;8.134;2023-08-17T20:35:25;6.77;;;5.50;;
5813;SDS011;2933;52.302;8.134;2023-08-17T20:40:26;5.80;;;5.30;;
5813;SDS011;2933;52.302;8.134;2023-08-17T20:45:28;6.90;;;5.30;;
5813;SDS011;2933;52.302;8.134;2023-08-17T20:50:31;5.90;;;5.33;;
5813;SDS011;2933;52.302;8.134;2023-08-17T20:55:36;6.60;;;5.80;;
5813;SDS011;2933;52.302;8.134;2023-08-17T21:00:39;6.10;;;5.50;;
5813;SDS011;2933;52.302;8.134;2023-08-17T21:05:42;10.50;;;5.77;;
5813;SDS011;2933;52.302;8.134;2023-08-17T21:10:43;6.97;;;6.23;;
5813;SDS011;2933;52.302;8.134;2023-08-17T21:15:45;6.60;;;5.90;;
5813;SDS011;2933;52.302;8.134;2023-08-17T21:20:48;6.50;;;5.90;;
5813;SDS011;2933;52.302;8.134;2023-08-17T21:25:50;9.07;;;6.60;;
5813;SDS011;2933;52.302;8.134;2023-08-17T21:30:52;11.80;;;6.97;;
5813;SDS011;2933;52.302;8.134;2023-08-17T21:36:02;7.27;;;6.47;;
5813;SDS011;2933;52.302;8.134;2023-08-17T21:41:04;12.93;;;8.10;;
5813;SDS011;2933;52.302;8.134;2023-08-17T21:46:05;12.03;;;7.80;;
5813;SDS011;2933;52.302;8.134;2023-08-17T21:51:08;12.00;;;7.63;;
5813;SDS011;2933;52.302;8.134;2023-08-17T21:56:10;15.80;;;9.43;;
5813;SDS011;2933;52.302;8.134;2023-08-17T22:01:11;11.70;;;8.57;;
5813;SDS011;2933;52.302;8.134;2023-08-17T22:06:15;18.17;;;9.83;;
5813;SDS011;2933;52.302;8.134;2023-08-17T22:11:17;13.53;;;8.90;;
5813;SDS011;2933;52.302;8.134;2023-08-17T22:16:18;15.67;;;10.00;;
5813;SDS011;2933;52.302;8.134;2023-08-17T22:21:21;15.60;;;9.90;;
5813;SDS011;2933;52.302;8.134;2023-08-17T22:26:23;21.53;;;9.47;;
5813;SDS011;2933;52.302;8.134;2023-08-17T22:31:25;14.27;;;9.03;;
5813;SDS011;2933;52.302;8.134;2023-08-17T22:36:28;15.93;;;8.90;;
5813;SDS011;2933;52.302;8.134;2023-08-17T22:41:29;13.67;;;9.80;;
5813;SDS011;2933;52.302;8.134;2023-08-17T22:46:31;12.63;;;8.90;;
5813;SDS011;2933;52.302;8.134;2023-08-17T22:51:34;10.50;;;7.03;;
5813;SDS011;2933;52.302;8.134;2023-08-17T22:56:35;13.53;;;8.20;;
5813;SDS011;2933;52.302;8.134;2023-08-17T23:01:37;11.13;;;7.77;;
5813;SDS011;2933;52.302;8.134;2023-08-17T23:06:40;12.30;;;8.10;;
5813;SDS011;2933;52.302;8.134;2023-08-17T23:11:41;13.53;;;9.03;;
5813;SDS011;2933;52.302;8.134;2023-08-17T23:16:43;13.50;;;8.90;;
5813;SDS011;2933;52.302;8.134;2023-08-17T23:21:46;12.63;;;8.43;;
5813;SDS011;2933;52.302;8.134;2023-08-17T23:26:47;17.13;;;9.70;;
5813;SDS011;2933;52.302;8.134;2023-08-17T23:31:49;13.03;;;8.60;;
5813;SDS011;2933;52.302;8.134;2023-08-17T23:36:52;11.10;;;8.60;;
5813;SDS011;2933;52.302;8.134;2023-08-17T23:41:54;17.70;;;9.40;;
5813;SDS011;2933;52.302;8.134;2023-08-17T23:46:55;12.83;;;9.13;;
5813;SDS011;2933;52.302;8.134;2023-08-17T23:51:58;15.30;;;9.97;;
5813;SDS011;2933;52.302;8.134;2023-08-17T23:57:00;16.93;;;10.67;;
